Time;durP1;ratioP1;P1;durP2;ratioP2;P2;SDS_P1;SDS_P2;PMS_P1;PMS_P2;Temp;Humidity;BMP_temperature;BMP_pressure;BME280_temperature;BME280_humidity;BME280_pressure;Samples;Min_cycle;Max_cycle;Signal;HPM_P1;HPM_P2
2022/05/02 00:00:20;;;;;;;13.57;11.05;;;4.10;99.90;;;;;;5053147;28;20086;-76
2022/05/02 00:02:48;;;;;;;13.02;11.20;;;4.10;99.90;;;;;;5069669;28;20052;-75
2022/05/02 00:05:16;;;;;;;13.63;11.02;;;4.10;99.90;;;;;;5069863;28;20032;-75
2022/05/02 00:07:46;;;;;;;14.63;11.93;;;4.10;99.90;;;;;;5051340;28;20135;-76
2022/05/02 00:10:15;;;;;;;13.75;11.05;;;4.00;99.90;;;;;;5052547;28;20041;-76
2022/05/02 00:12:43;;;;;;;16.10;10.88;;;4.10;99.90;;;;;;5044722;28;20129;-76
2022/05/02 00:15:10;;;;;;;12.75;10.32;;;4.10;99.90;;;;;;5054343;28;20496;-76
2022/05/02 00:20:25;;;;;;;14.90;10.52;;;4.20;99.90;;;;;;5064848;28;20040;-76
2022/05/02 00:22:57;;;;;;;13.57;11.02;;;4.20;99.90;;;;;;5053107;28;20398;-77
2022/05/02 00:25:23;;;;;;;13.85;11.18;;;4.30;99.90;;;;;;5053723;28;20491;-76
2022/05/02 00:27:49;;;;;;;14.63;10.98;;;4.30;99.90;;;;;;5051894;28;20045;-76
2022/05/02 00:30:26;;;;;;;13.77;9.82;;;4.30;99.90;;;;;;5053516;28;20109;-76
2022/05/02 00:32:56;;;;;;;14.43;9.80;;;4.30;99.90;;;;;;5070448;28;20040;-76
2022/05/02 00:35:27;;;;;;;11.85;10.35;;;4.20;99.90;;;;;;5070560;28;20040;-76
2022/05/02 00:37:56;;;;;;;11.57;9.82;;;4.20;99.90;;;;;;5042451;28;20040;-76
2022/05/02 00:40:23;;;;;;;12.60;10.00;;;4.00;99.90;;;;;;5039725;28;20564;-76
2022/05/02 00:42:51;;;;;;;13.43;10.55;;;4.00;99.90;;;;;;5070117;28;20045;-76
2022/05/02 00:45:18;;;;;;;12.65;10.18;;;3.90;99.90;;;;;;5038597;28;20040;-75
2022/05/02 00:47:57;;;;;;;14.05;10.00;;;3.90;99.90;;;;;;5050720;28;20166;-76
2022/05/02 00:50:48;;;;;;;12.88;10.20;;;3.90;99.90;;;;;;5046356;28;20048;-76
2022/05/02 00:53:25;;;;;;;14.25;10.98;;;3.80;99.90;;;;;;5048338;28;20495;-76
2022/05/02 00:55:53;;;;;;;16.00;10.85;;;3.90;99.90;;;;;;5067407;28;20032;-76
2022/05/02 00:58:19;;;;;;;14.80;11.15;;;3.90;99.90;;;;;;5048511;28;20040;-75
2022/05/02 01:00:45;;;;;;;15.65;11.95;;;4.00;99.90;;;;;;5047550;28;20132;-76
2022/05/02 01:03:14;;;;;;;18.67;11.15;;;4.00;99.90;;;;;;5053045;28;20039;-75
2022/05/02 01:08:34;;;;;;;13.73;11.15;;;4.10;99.90;;;;;;5061492;28;20049;-76
2022/05/02 01:11:03;;;;;;;18.20;11.20;;;4.30;99.90;;;;;;5052327;28;20069;-77
2022/05/02 01:13:41;;;;;;;13.80;10.80;;;4.30;99.90;;;;;;5045641;28;20111;-76
2022/05/02 01:16:19;;;;;;;14.27;10.48;;;4.30;99.90;;;;;;5037411;28;20045;-75
2022/05/02 01:18:48;;;;;;;12.70;10.10;;;4.30;99.90;;;;;;5039149;28;20041;-76
2022/05/02 01:21:26;;;;;;;14.13;10.70;;;4.20;99.90;;;;;;5056267;28;20040;-76
2022/05/02 01:23:54;;;;;;;16.80;11.40;;;4.10;99.90;;;;;;5055904;28;20123;-76
2022/05/02 01:26:20;;;;;;;13.90;11.30;;;4.00;99.90;;;;;;5057213;28;20040;-75
2022/05/02 01:28:55;;;;;;;14.20;11.52;;;4.00;99.90;;;;;;5050366;28;20041;-75
2022/05/02 01:31:21;;;;;;;15.10;11.18;;;4.00;99.90;;;;;;5057033;28;20058;-75
2022/05/02 01:33:48;;;;;;;14.45;10.82;;;4.00;99.90;;;;;;5054615;28;20120;-75
2022/05/02 01:36:21;;;;;;;13.90;11.18;;;4.10;99.90;;;;;;5050143;28;20094;-75
2022/05/02 01:38:52;;;;;;;13.52;10.50;;;4.10;99.90;;;;;;5055231;28;20520;-76
2022/05/02 01:41:23;;;;;;;13.05;9.52;;;4.00;99.90;;;;;;5054151;28;20499;-76
2022/05/02 01:43:49;;;;;;;11.63;9.02;;;4.00;99.90;;;;;;5056901;28;20042;-76
2022/05/02 01:46:20;;;;;;;11.32;9.68;;;3.80;99.90;;;;;;5068794;28;20468;-75
2022/05/02 01:48:46;;;;;;;13.88;10.82;;;3.70;99.90;;;;;;5050540;28;20356;-76
2022/05/02 01:51:14;;;;;;;14.63;10.20;;;3.60;99.90;;;;;;5052466;28;20041;-76
2022/05/02 01:53:40;;;;;;;15.63;11.02;;;3.60;99.90;;;;;;5053455;28;20044;-76
2022/05/02 01:56:05;;;;;;;13.02;10.70;;;3.40;99.90;;;;;;5055525;28;20089;-76
2022/05/02 01:58:31;;;;;;;12.95;10.32;;;3.50;99.90;;;;;;5050899;28;20048;-76
2022/05/02 02:00:57;;;;;;;13.88;10.27;;;3.30;99.90;;;;;;5053059;28;20048;-76
2022/05/02 02:03:23;;;;;;;13.93;10.30;;;3.20;99.90;;;;;;5056330;28;20043;-76
2022/05/02 02:05:48;;;;;;;13.27;10.48;;;3.20;99.90;;;;;;5053094;28;20066;-75
2022/05/02 02:08:20;;;;;;;12.52;10.13;;;3.20;99.90;;;;;;5036059;28;20044;-76
2022/05/02 02:10:47;;;;;;;12.43;10.10;;;3.00;99.90;;;;;;5052425;28;20041;-75
2022/05/02 02:13:13;;;;;;;13.15;10.98;;;3.00;99.90;;;;;;5056130;28;20505;-76
2022/05/02 02:15:43;;;;;;;14.48;10.35;;;2.90;99.90;;;;;;5071452;28;20037;-76
2022/05/02 02:18:09;;;;;;;13.73;11.30;;;2.90;99.90;;;;;;5055951;28;20070;-76
2022/05/02 02:20:35;;;;;;;13.80;11.10;;;2.80;99.90;;;;;;5053817;28;20062;-76
2022/05/02 02:23:02;;;;;;;15.00;11.55;;;2.80;99.90;;;;;;5047266;28;20499;-76
2022/05/02 02:25:28;;;;;;;16.10;11.57;;;2.80;99.90;;;;;;5055546;28;20052;-75
2022/05/02 02:27:54;;;;;;;14.85;11.73;;;2.70;99.90;;;;;;5055804;28;20043;-76
2022/05/02 02:30:20;;;;;;;15.90;12.07;;;2.70;99.90;;;;;;5055183;28;20032;-76
2022/05/02 02:32:46;;;;;;;15.80;12.10;;;2.70;99.90;;;;;;5054640;28;20123;-75
2022/05/02 02:35:13;;;;;;;17.25;12.80;;;2.60;99.90;;;;;;5072355;28;20127;-76
2022/05/02 02:37:39;;;;;;;18.77;13.25;;;2.60;99.90;;;;;;5052582;28;20036;-77
2022/05/02 02:40:09;;;;;;;15.50;11.23;;;2.50;99.90;;;;;;5052404;28;20047;-76
2022/05/02 02:42:36;;;;;;;17.08;13.02;;;2.50;99.90;;;;;;5043940;28;20037;-76
2022/05/02 02:45:02;;;;;;;18.58;11.55;;;2.50;99.90;;;;;;5054401;28;20495;-76
2022/05/02 02:47:29;;;;;;;17.15;12.05;;;2.40;99.90;;;;;;5070450;28;20067;-76
2022/05/02 02:49:54;;;;;;;19.60;12.32;;;2.40;99.90;;;;;;5055406;28;20106;-75
2022/05/02 02:52:20;;;;;;;16.35;12.73;;;2.50;99.90;;;;;;5054024;28;20499;-76
2022/05/02 02:54:46;;;;;;;18.70;14.48;;;2.40;99.90;;;;;;5055785;28;20035;-75
2022/05/02 02:57:12;;;;;;;20.88;14.73;;;2.40;99.90;;;;;;5047670;28;20048;-76
2022/05/02 02:59:38;;;;;;;20.42;14.20;;;2.40;99.90;;;;;;5048216;28;20448;-76
2022/05/02 03:02:05;;;;;;;19.02;13.90;;;2.40;99.90;;;;;;5054442;28;20085;-76
2022/05/02 03:07:16;;;;;;;15.70;12.45;;;2.30;99.90;;;;;;5074002;28;20131;-76
2022/05/02 03:09:45;;;;;;;16.23;12.30;;;2.30;99.90;;;;;;5051705;28;20070;-76
2022/05/02 03:12:12;;;;;;;15.23;11.52;;;2.30;99.90;;;;;;5052717;28;20032;-75
2022/05/02 03:14:38;;;;;;;14.80;10.95;;;2.30;99.90;;;;;;5055207;28;20090;-76
2022/05/02 03:17:04;;;;;;;16.38;11.77;;;2.20;99.90;;;;;;5071835;28;20083;-76
2022/05/02 03:19:30;;;;;;;16.00;11.68;;;2.20;99.90;;;;;;5071761;28;20040;-75
2022/05/02 03:21:56;;;;;;;16.33;12.38;;;2.10;99.90;;;;;;5053644;28;20460;-76
2022/05/02 03:24:22;;;;;;;18.40;13.35;;;2.10;99.90;;;;;;5051935;28;20054;-75
2022/05/02 03:26:50;;;;;;;20.63;14.73;;;2.10;99.90;;;;;;5044395;28;20415;-75
2022/05/02 03:29:16;;;;;;;19.30;13.73;;;2.10;99.90;;;;;;5054542;28;20032;-75
2022/05/02 03:31:42;;;;;;;20.55;13.10;;;2.00;99.90;;;;;;5052838;28;20067;-75
2022/05/02 03:34:08;;;;;;;18.55;14.00;;;2.00;99.90;;;;;;5054102;28;20040;-77
2022/05/02 03:36:34;;;;;;;21.13;14.88;;;2.00;99.90;;;;;;5065070;28;20032;-76
2022/05/02 03:39:01;;;;;;;21.10;15.70;;;2.00;99.90;;;;;;5050980;28;20051;-76
2022/05/02 03:41:27;;;;;;;20.20;15.23;;;2.00;99.90;;;;;;5035595;28;20052;-76
2022/05/02 03:43:52;;;;;;;20.08;14.05;;;2.00;99.90;;;;;;5053093;28;20033;-76
2022/05/02 03:46:21;;;;;;;20.83;15.02;;;2.00;99.90;;;;;;5053589;28;20487;-76
2022/05/02 03:48:47;;;;;;;17.75;13.10;;;2.00;99.90;;;;;;5054473;28;20048;-76
2022/05/02 03:51:13;;;;;;;20.33;14.02;;;2.00;99.90;;;;;;5049965;28;20638;-75
2022/05/02 03:53:41;;;;;;;20.58;14.02;;;1.90;99.90;;;;;;5042689;28;20044;-76
2022/05/02 03:56:07;;;;;;;19.17;14.00;;;1.90;99.90;;;;;;5070304;28;20032;-75
2022/05/02 03:58:33;;;;;;;22.52;15.30;;;1.90;99.90;;;;;;5052235;28;20410;-75
2022/05/02 04:00:59;;;;;;;20.35;14.88;;;1.90;99.90;;;;;;5042579;28;20036;-75
2022/05/02 04:03:25;;;;;;;20.83;15.02;;;1.80;99.90;;;;;;5065988;28;20041;-75
2022/05/02 04:05:51;;;;;;;21.05;14.20;;;1.80;99.90;;;;;;5050910;28;20120;-76
2022/05/02 04:08:17;;;;;;;18.70;13.65;;;1.80;99.90;;;;;;5046510;28;20123;-75
2022/05/02 04:10:43;;;;;;;20.75;14.27;;;1.80;99.90;;;;;;5055782;28;20063;-75
2022/05/02 04:13:09;;;;;;;18.95;13.88;;;1.80;99.90;;;;;;5051713;28;20043;-75
2022/05/02 04:15:35;;;;;;;16.05;12.77;;;1.70;99.90;;;;;;5070070;28;20488;-76
2022/05/02 04:18:04;;;;;;;22.70;16.13;;;1.80;99.90;;;;;;5069283;28;20041;-75
2022/05/02 04:20:30;;;;;;;22.67;16.27;;;1.70;99.90;;;;;;5054029;28;20040;-75
2022/05/02 04:23:01;;;;;;;21.00;15.50;;;1.70;99.90;;;;;;5048779;28;20482;-76
2022/05/02 04:25:27;;;;;;;18.65;14.93;;;1.70;99.90;;;;;;5070399;28;20041;-75
2022/05/02 04:27:53;;;;;;;19.30;14.20;;;1.80;99.90;;;;;;5047311;28;20053;-76
2022/05/02 04:30:19;;;;;;;23.25;14.38;;;1.80;99.90;;;;;;5070392;28;20048;-75
2022/05/02 04:32:44;;;;;;;20.20;13.73;;;1.80;99.90;;;;;;5047911;28;20122;-76
2022/05/02 04:35:10;;;;;;;16.95;12.90;;;1.80;99.90;;;;;;5045187;28;20072;-76
2022/05/02 04:37:39;;;;;;;18.88;13.38;;;1.80;99.90;;;;;;5067169;28;20047;-75
2022/05/02 04:40:06;;;;;;;16.65;13.30;;;1.90;99.90;;;;;;5033875;28;20040;-75
2022/05/02 04:42:32;;;;;;;16.88;13.30;;;1.80;99.90;;;;;;5044488;28;20430;-75
2022/05/02 04:44:58;;;;;;;18.45;14.05;;;1.80;99.90;;;;;;5050801;28;20040;-76
2022/05/02 04:47:24;;;;;;;15.77;12.63;;;1.90;99.90;;;;;;5065793;28;20113;-76
2022/05/02 04:49:49;;;;;;;18.65;13.18;;;1.90;99.90;;;;;;5069892;28;20090;-75
2022/05/02 04:52:15;;;;;;;19.67;14.95;;;1.90;99.90;;;;;;5053422;28;20127;-75
2022/05/02 04:54:41;;;;;;;20.33;14.27;;;2.00;99.90;;;;;;5052547;28;20235;-76
2022/05/02 04:57:07;;;;;;;18.00;14.45;;;2.00;99.90;;;;;;5048808;28;20454;-76
2022/05/02 04:59:33;;;;;;;21.30;15.77;;;2.00;99.90;;;;;;5048972;28;20037;-76
2022/05/02 05:01:59;;;;;;;21.77;16.20;;;2.10;99.90;;;;;;5040285;28;20040;-76
2022/05/02 05:04:25;;;;;;;20.98;15.43;;;2.10;99.90;;;;;;5047816;28;20036;-76
2022/05/02 05:06:51;;;;;;;23.00;16.48;;;2.20;99.90;;;;;;5048949;28;20044;-76
2022/05/02 05:09:17;;;;;;;21.15;14.85;;;2.30;99.90;;;;;;5042690;28;20087;-76
2022/05/02 05:11:59;;;;;;;20.20;15.57;;;2.30;99.90;;;;;;5059087;28;20049;-77
2022/05/02 05:18:14;;;;;;;22.80;17.40;;;2.50;99.90;;;;;;5076449;28;21871;-77
2022/05/02 05:21:32;;;;;;;26.20;16.52;;;2.60;99.90;;;;;;5084515;28;20439;-77
2022/05/02 05:24:22;;;;;;;23.35;15.70;;;2.70;99.90;;;;;;5048380;28;20036;-76
2022/05/02 05:27:29;;;;;;;22.30;16.80;;;2.80;99.90;;;;;;5050607;28;20499;-77
2022/05/02 05:33:48;;;;;;;27.60;18.13;;;3.10;99.90;;;;;;5069656;28;20044;-77
2022/05/02 05:36:20;;;;;;;26.02;18.33;;;3.30;99.90;;;;;;5052960;28;20037;-77
2022/05/02 05:38:55;;;;;;;25.55;19.98;;;3.40;99.90;;;;;;5049395;28;20041;-77
2022/05/02 05:41:38;;;;;;;25.05;18.30;;;3.50;99.90;;;;;;5052747;28;20075;-77
2022/05/02 05:44:34;;;;;;;24.13;18.33;;;3.70;99.90;;;;;;5051560;28;20068;-76
2022/05/02 05:47:15;;;;;;;26.95;20.27;;;3.80;99.90;;;;;;5047632;28;20491;-76
2022/05/02 05:50:08;;;;;;;26.63;19.25;;;3.90;99.90;;;;;;5049636;28;20032;-76
2022/05/02 05:53:01;;;;;;;28.42;19.77;;;4.10;99.90;;;;;;5051894;28;20060;-76
2022/05/02 05:55:51;;;;;;;28.52;19.75;;;4.20;99.90;;;;;;5050065;28;20043;-76
2022/05/02 05:58:45;;;;;;;27.75;19.98;;;4.30;99.90;;;;;;5064815;28;20051;-76
2022/05/02 06:01:15;;;;;;;27.63;19.77;;;4.60;99.90;;;;;;5043184;28;20503;-76
2022/05/02 06:04:19;;;;;;;27.77;19.70;;;4.80;99.90;;;;;;5056223;28;20036;-76
2022/05/02 06:07:00;;;;;;;24.98;17.75;;;5.10;99.90;;;;;;5066686;28;20044;-75
2022/05/02 06:09:30;;;;;;;26.10;17.23;;;5.40;99.90;;;;;;5043050;28;20045;-76
2022/05/02 06:12:11;;;;;;;22.65;17.23;;;5.50;99.90;;;;;;5037794;28;20041;-77
2022/05/02 06:20:34;;;;;;;21.48;16.55;;;6.90;99.90;;;;;;5067293;28;20044;-77
2022/05/02 06:23:07;;;;;;;17.92;15.25;;;7.50;99.90;;;;;;5053231;28;20033;-76
2022/05/02 06:25:43;;;;;;;17.25;14.90;;;7.80;99.90;;;;;;5068224;28;20041;-76
2022/05/02 06:28:09;;;;;;;16.77;14.45;;;8.10;99.90;;;;;;5048683;28;20040;-76
2022/05/02 06:30:40;;;;;;;18.65;14.95;;;8.30;99.90;;;;;;5038838;28;20045;-76
2022/05/02 06:33:13;;;;;;;15.65;13.65;;;8.80;99.90;;;;;;5068786;28;20101;-76
2022/05/02 06:36:13;;;;;;;13.70;11.82;;;9.70;99.90;;;;;;5056223;28;20033;-77
2022/05/02 06:38:58;;;;;;;16.77;13.68;;;10.20;99.90;;;;;;5054511;28;20550;-77
2022/05/02 06:41:52;;;;;;;15.38;12.50;;;10.00;99.90;;;;;;5056310;28;20048;-77
2022/05/02 06:44:36;;;;;;;13.85;12.10;;;9.90;99.90;;;;;;5056202;28;20587;-77
2022/05/02 06:47:26;;;;;;;17.65;12.88;;;9.70;99.90;;;;;;5054833;28;20132;-77
2022/05/02 06:49:59;;;;;;;15.45;12.95;;;9.50;99.90;;;;;;5050341;28;20033;-77
2022/05/02 06:52:32;;;;;;;18.55;14.00;;;9.40;99.90;;;;;;5050746;28;20040;-77
2022/05/02 06:55:20;;;;;;;15.10;13.35;;;9.30;99.90;;;;;;5056347;28;20059;-77
2022/05/02 06:58:08;;;;;;;15.02;13.32;;;9.30;99.90;;;;;;5055366;28;20499;-77
2022/05/02 07:00:47;;;;;;;15.68;13.85;;;9.30;99.90;;;;;;5046488;28;20392;-76
2022/05/02 07:03:25;;;;;;;16.67;14.27;;;9.30;99.90;;;;;;5072193;28;20068;-76
2022/05/02 07:06:09;;;;;;;16.20;13.48;;;9.30;99.90;;;;;;5055038;28;20395;-76
2022/05/02 07:08:58;;;;;;;14.13;12.60;;;9.40;99.90;;;;;;5070497;28;20037;-76
2022/05/02 07:11:32;;;;;;;19.88;13.20;;;9.40;99.90;;;;;;5066851;28;20127;-77
2022/05/02 07:14:25;;;;;;;17.42;14.32;;;9.50;99.90;;;;;;5054465;28;20058;-77
2022/05/02 07:16:54;;;;;;;16.17;13.60;;;9.60;99.90;;;;;;5052334;28;20068;-77
2022/05/02 07:19:40;;;;;;;16.73;13.90;;;9.60;99.90;;;;;;5041363;28;20041;-77
2022/05/02 07:22:11;;;;;;;14.85;13.35;;;9.70;99.90;;;;;;5054721;28;20036;-77
2022/05/02 07:25:13;;;;;;;16.02;12.82;;;9.90;99.90;;;;;;5051783;28;20127;-77
2022/05/02 07:28:00;;;;;;;15.38;12.18;;;9.90;99.90;;;;;;5035001;28;20037;-77
2022/05/02 07:30:26;;;;;;;14.93;12.07;;;10.00;99.90;;;;;;5035590;28;20442;-77
2022/05/02 07:32:53;;;;;;;16.60;13.45;;;10.10;99.90;;;;;;5034731;28;20044;-77
2022/05/02 07:35:21;;;;;;;13.98;12.15;;;10.20;99.90;;;;;;5045816;28;20414;-77
2022/05/02 07:37:51;;;;;;;16.65;13.15;;;10.30;99.90;;;;;;5047218;28;20036;-77
2022/05/02 07:40:25;;;;;;;14.85;13.20;;;10.40;99.90;;;;;;5053598;28;20060;-77
2022/05/02 07:42:55;;;;;;;14.98;13.43;;;10.50;99.90;;;;;;5052602;28;20524;-77
2022/05/02 07:45:31;;;;;;;15.85;12.77;;;10.60;99.90;;;;;;5051704;28;20047;-77
2022/05/02 07:48:04;;;;;;;14.13;12.65;;;10.70;99.90;;;;;;5035078;28;20064;-77
2022/05/02 07:50:31;;;;;;;15.60;12.32;;;10.80;99.90;;;;;;5058334;28;20037;-77
2022/05/02 07:52:59;;;;;;;15.30;13.40;;;10.90;99.90;;;;;;5051566;28;20037;-77
2022/05/02 07:55:33;;;;;;;14.65;11.95;;;11.00;99.90;;;;;;5051340;28;20044;-77
2022/05/02 07:58:03;;;;;;;13.35;11.77;;;11.20;99.90;;;;;;5046223;28;20082;-77
2022/05/02 08:00:32;;;;;;;13.55;11.95;;;11.30;99.90;;;;;;5053038;28;20063;-77
2022/05/02 08:02:57;;;;;;;14.75;12.93;;;11.40;99.90;;;;;;5054628;28;20044;-77
2022/05/02 08:05:28;;;;;;;14.65;12.55;;;11.60;99.90;;;;;;5054270;28;20041;-76
2022/05/02 08:08:00;;;;;;;17.40;12.68;;;11.70;99.90;;;;;;5038983;28;20055;-76
2022/05/02 08:10:55;;;;;;;15.20;13.10;;;11.90;99.90;;;;;;5050962;28;20037;-77
2022/05/02 08:13:46;;;;;;;13.80;12.30;;;12.10;99.90;;;;;;5068859;28;20043;-77
2022/05/02 08:16:24;;;;;;;14.93;12.18;;;12.20;99.90;;;;;;5054000;28;20072;-77
2022/05/02 08:19:17;;;;;;;13.63;11.93;;;13.00;99.90;;;;;;5054411;28;20534;-77
2022/05/02 08:21:47;;;;;;;12.75;11.07;;;14.20;99.90;;;;;;5050726;28;20041;-77
2022/05/02 08:27:28;;;;;;;;;;;17.00;99.90;;;;;;5059492;28;20052;-78
2022/05/02 08:30:25;;;;;;;10.95;9.48;;;18.50;99.90;;;;;;5053672;28;19928;-77
2022/05/02 08:32:59;;;;;;;10.18;9.10;;;19.40;99.90;;;;;;5052644;28;20044;-78
2022/05/02 08:35:46;;;;;;;10.15;9.15;;;20.30;98.90;;;;;;5053729;28;20040;-78
2022/05/02 08:38:29;;;;;;;11.18;9.45;;;20.30;91.50;;;;;;5071262;28;20040;-75
2022/05/02 08:41:26;;;;;;;9.73;8.63;;;20.70;90.80;;;;;;5054516;28;20044;-75
2022/05/02 08:44:06;;;;;;;8.65;7.85;;;21.20;79.10;;;;;;5069436;28;20040;-75
2022/05/02 08:46:50;;;;;;;8.90;8.07;;;21.80;91.00;;;;;;5070611;28;20044;-75
2022/05/02 08:49:56;;;;;;;9.35;8.55;;;22.20;66.70;;;;;;5053714;28;20039;-75
2022/05/02 08:52:55;;;;;;;9.10;8.13;;;21.70;68.70;;;;;;5053791;28;20040;-75
2022/05/02 08:55:43;;;;;;;10.25;8.55;;;21.00;74.90;;;;;;5054101;28;20102;-75
2022/05/02 08:58:33;;;;;;;8.65;7.85;;;21.00;73.10;;;;;;5049727;28;20437;-75
2022/05/02 09:01:29;;;;;;;8.70;7.80;;;21.50;70.10;;;;;;5053181;28;20052;-75
2022/05/02 09:04:19;;;;;;;8.57;7.70;;;21.90;58.60;;;;;;5053469;28;20376;-75
2022/05/02 09:07:03;;;;;;;8.32;7.53;;;22.00;57.20;;;;;;5053721;28;20045;-75
2022/05/02 09:10:06;;;;;;;9.70;7.70;;;22.40;61.80;;;;;;5052824;28;20119;-75
2022/05/02 09:12:43;;;;;;;9.52;8.20;;;22.90;51.10;;;;;;5033841;28;20407;-75
2022/05/02 09:15:42;;;;;;;7.95;7.07;;;22.90;47.50;;;;;;5033663;28;20036;-75
2022/05/02 09:18:30;;;;;;;7.85;7.15;;;22.50;52.60;;;;;;5062974;28;20044;-75
2022/05/02 09:21:10;;;;;;;8.25;7.47;;;22.50;49.80;;;;;;5053782;28;20231;-75
2022/05/02 09:24:16;;;;;;;8.15;6.53;;;22.60;53.10;;;;;;5052266;28;20037;-75
2022/05/02 09:26:58;;;;;;;7.85;6.82;;;23.00;50.50;;;;;;5050073;28;20040;-75
2022/05/02 09:29:45;;;;;;;8.15;6.72;;;23.30;52.50;;;;;;5055446;28;20448;-75
2022/05/02 09:32:46;;;;;;;8.75;7.10;;;23.60;47.10;;;;;;5057955;28;20048;-75
2022/05/02 09:35:33;;;;;;;8.82;7.93;;;23.20;45.90;;;;;;5057004;28;20169;-75
2022/05/02 09:38:24;;;;;;;8.07;7.28;;;22.70;47.60;;;;;;5073398;28;20028;-76
2022/05/02 09:41:00;;;;;;;6.78;6.18;;;22.60;49.80;;;;;;5057103;28;20128;-76
2022/05/02 09:50:01;;;;;;;8.57;6.75;;;23.40;45.50;;;;;;5074840;28;20504;-77
2022/05/02 09:53:00;;;;;;;7.25;6.47;;;22.90;43.30;;;;;;5056412;28;20048;-77
2022/05/02 09:58:31;;;;;;;7.63;6.80;;;22.30;47.90;;;;;;5073537;28;20135;-77
2022/05/02 10:01:25;;;;;;;5.90;5.40;;;22.60;44.70;;;;;;5052506;28;20045;-77
2022/05/02 10:04:19;;;;;;;6.28;5.65;;;22.70;45.50;;;;;;5056784;28;20054;-78
2022/05/02 10:06:50;;;;;;;6.80;5.70;;;22.50;44.40;;;;;;5072908;28;20049;-75
2022/05/02 10:09:50;;;;;;;6.90;6.05;;;22.40;46.30;;;;;;5052872;28;20044;-75
2022/05/02 10:12:21;;;;;;;7.07;6.20;;;22.70;47.90;;;;;;5057387;28;20048;-75
2022/05/02 10:15:05;;;;;;;6.72;6.03;;;23.20;49.90;;;;;;5054677;28;20117;-75
2022/05/02 10:18:01;;;;;;;;;;;23.80;47.00;;;;;;5046867;28;20045;-75
2022/05/02 10:20:49;;;;;;;6.57;5.97;;;24.30;47.00;;;;;;5056551;28;19920;-75
2022/05/02 10:23:33;;;;;;;6.78;6.07;;;24.60;43.90;;;;;;5072817;28;20045;-75
2022/05/02 10:26:12;;;;;;;6.82;5.88;;;24.30;46.50;;;;;;5056000;28;20040;-75
2022/05/02 10:29:35;;;;;;;8.00;6.78;;;24.40;47.30;;;;;;5068422;28;20155;-75
2022/05/02 10:32:26;;;;;;;6.97;6.38;;;25.00;46.90;;;;;;5038154;28;20040;-74
2022/05/02 10:34:59;;;;;;;7.07;6.38;;;25.50;40.00;;;;;;5038577;28;20379;-74
2022/05/02 10:37:31;;;;;;;7.00;6.30;;;24.70;43.10;;;;;;5035645;28;20106;-74
2022/05/02 10:40:13;;;;;;;7.28;6.47;;;24.30;44.90;;;;;;5034758;28;20092;-75
2022/05/02 10:42:50;;;;;;;7.38;6.15;;;24.50;45.00;;;;;;5052577;28;20044;-75
2022/05/02 10:45:24;;;;;;;7.50;6.22;;;24.60;40.50;;;;;;5056416;28;20036;-75
2022/05/02 10:47:55;;;;;;;6.90;6.20;;;24.10;40.10;;;;;;5056027;28;20048;-75
2022/05/02 10:50:30;;;;;;;7.05;6.30;;;23.60;42.80;;;;;;5072329;28;20594;-75
2022/05/02 10:52:59;;;;;;;6.65;6.05;;;23.60;44.50;;;;;;5069448;28;20171;-75
2022/05/02 10:55:33;;;;;;;6.77;6.17;;;24.00;46.70;;;;;;5056335;28;20072;-75
2022/05/02 10:58:04;;;;;;;7.03;6.32;;;24.50;46.20;;;;;;5072476;28;20033;-75
2022/05/02 11:00:54;;;;;;;7.72;6.68;;;24.90;46.90;;;;;;5072332;28;20086;-75
2022/05/02 11:03:25;;;;;;;7.30;6.22;;;25.50;42.80;;;;;;5054525;28;20056;-76
2022/05/02 11:06:19;;;;;;;7.53;6.38;;;25.70;43.40;;;;;;5056051;28;20044;-76
2022/05/02 11:08:49;;;;;;;7.88;6.30;;;26.00;45.10;;;;;;5055628;28;20106;-76
2022/05/02 11:11:38;;;;;;;6.80;6.10;;;26.30;43.60;;;;;;5055728;28;20087;-76
2022/05/02 11:14:26;;;;;;;8.02;6.43;;;26.60;42.00;;;;;;5055492;28;20514;-76
2022/05/02 11:17:04;;;;;;;8.73;6.05;;;26.80;42.70;;;;;;5068699;28;20515;-75
2022/05/02 11:23:11;;;;;;;6.93;6.20;;;27.30;39.30;;;;;;5071557;28;20062;-76
2022/05/02 11:26:09;;;;;;;8.15;6.05;;;26.70;38.20;;;;;;5050299;28;20070;-76
2022/05/02 11:29:02;;;;;;;6.90;6.18;;;25.40;40.70;;;;;;5055498;28;20029;-75
2022/05/02 11:31:37;;;;;;;7.82;7.07;;;24.40;42.80;;;;;;5055101;28;20498;-75
2022/05/02 11:34:17;;;;;;;6.75;6.15;;;24.30;42.40;;;;;;5055321;28;20047;-75
2022/05/02 11:36:55;;;;;;;6.60;6.00;;;24.10;44.20;;;;;;5071594;28;20074;-75
2022/05/02 11:39:33;;;;;;;8.70;5.93;;;24.40;41.80;;;;;;5071356;28;20087;-75
2022/05/02 11:42:07;;;;;;;7.93;6.18;;;23.90;43.70;;;;;;5052554;28;20415;-76
2022/05/02 11:44:47;;;;;;;6.25;5.65;;;24.20;44.40;;;;;;5071422;28;20053;-75
2022/05/02 11:47:22;;;;;;;7.68;5.68;;;24.80;43.50;;;;;;5054592;28;20062;-75
2022/05/02 11:50:09;;;;;;;7.70;7.00;;;25.50;43.70;;;;;;5071290;28;20083;-76
2022/05/02 11:52:38;;;;;;;6.72;5.93;;;26.20;42.10;;;;;;5054433;28;20499;-76
2022/05/02 11:55:09;;;;;;;7.03;5.93;;;26.70;43.30;;;;;;5069719;28;20080;-77
2022/05/02 11:57:55;;;;;;;6.65;6.05;;;27.30;42.90;;;;;;5054651;28;20465;-76
2022/05/02 12:00:28;;;;;;;6.40;5.80;;;27.80;41.00;;;;;;5054629;28;20041;-76
2022/05/02 12:03:11;;;;;;;6.05;5.40;;;28.10;41.70;;;;;;5041398;28;20055;-76
2022/05/02 12:05:49;;;;;;;6.57;5.57;;;28.40;40.40;;;;;;5054241;28;20516;-76
2022/05/02 12:08:32;;;;;;;5.47;4.97;;;28.40;41.20;;;;;;5054206;28;20491;-76
2022/05/02 12:11:11;;;;;;;;;;;28.40;40.50;;;;;;5047870;28;20037;-76
2022/05/02 12:13:45;;;;;;;6.22;5.70;;;28.30;39.40;;;;;;5067096;28;19935;-76
2022/05/02 12:16:18;;;;;;;6.30;5.65;;;28.30;40.20;;;;;;5054085;28;20075;-76
2022/05/02 12:18:46;;;;;;;6.63;5.88;;;28.30;38.80;;;;;;5045038;28;20040;-76
2022/05/02 12:21:38;;;;;;;7.53;6.03;;;28.10;39.10;;;;;;5039242;28;20043;-77
2022/05/02 12:24:06;;;;;;;6.03;5.43;;;28.10;38.80;;;;;;5048493;28;20060;-76
2022/05/02 12:26:33;;;;;;;6.05;5.55;;;27.80;37.80;;;;;;5070524;28;20557;-76
2022/05/02 12:29:12;;;;;;;6.85;6.15;;;27.30;37.50;;;;;;5070015;28;20036;-76
2022/05/02 12:31:43;;;;;;;6.78;5.72;;;26.90;38.40;;;;;;5054417;28;20047;-76
2022/05/02 12:34:11;;;;;;;6.75;6.15;;;26.20;36.10;;;;;;5054272;28;20052;-76
2022/05/02 12:36:50;;;;;;;6.45;5.85;;;25.30;38.40;;;;;;5053926;28;20048;-76
2022/05/02 12:39:31;;;;;;;5.85;5.25;;;25.20;40.30;;;;;;5053992;28;20451;-76
2022/05/02 12:42:15;;;;;;;6.05;5.45;;;25.40;39.00;;;;;;5068641;28;20166;-76
2022/05/02 12:45:08;;;;;;;6.03;5.43;;;25.70;41.20;;;;;;5070047;28;20106;-76
2022/05/02 12:47:59;;;;;;;5.43;4.78;;;26.30;41.40;;;;;;5062217;28;20550;-76
2022/05/02 12:50:29;;;;;;;5.50;4.90;;;27.10;41.40;;;;;;5048563;28;20048;-76
2022/05/02 12:52:57;;;;;;;5.35;4.30;;;27.60;40.50;;;;;;5053573;28;20165;-75
2022/05/02 12:55:30;;;;;;;5.30;4.43;;;28.10;40.00;;;;;;5070629;28;20048;-75
2022/05/02 13:00:43;;;;;;;5.88;4.75;;;28.70;36.70;;;;;;5070061;28;20390;-75
2022/05/02 13:03:15;;;;;;;6.50;5.03;;;28.60;37.30;;;;;;5052539;28;20044;-75
2022/05/02 13:06:07;;;;;;;5.72;4.60;;;28.60;36.80;;;;;;5053529;28;20040;-75
2022/05/02 13:08:41;;;;;;;5.32;4.82;;;27.90;33.20;;;;;;5069767;28;20119;-75
2022/05/02 13:11:11;;;;;;;5.03;4.53;;;26.80;35.00;;;;;;5051781;28;20048;-75
2022/05/02 13:13:54;;;;;;;5.78;5.13;;;26.20;39.00;;;;;;5041445;28;20036;-75
2022/05/02 13:16:36;;;;;;;6.03;5.18;;;26.30;38.20;;;;;;5033776;28;20052;-75
2022/05/02 13:19:07;;;;;;;6.40;4.70;;;26.60;38.00;;;;;;5033486;28;20395;-75
2022/05/02 13:21:39;;;;;;;4.35;3.95;;;26.70;37.80;;;;;;5033806;28;20045;-75
2022/05/02 13:24:17;;;;;;;4.80;4.30;;;26.70;38.10;;;;;;5043458;28;20083;-75
2022/05/02 13:27:06;;;;;;;5.28;4.55;;;26.70;39.20;;;;;;5053969;28;20139;-75
2022/05/02 13:29:39;;;;;;;7.47;4.95;;;25.90;37.90;;;;;;5053444;28;20033;-75
2022/05/02 13:32:08;;;;;;;5.20;4.63;;;25.30;38.80;;;;;;5053224;28;20041;-75
2022/05/02 13:34:50;;;;;;;5.20;4.70;;;25.40;40.30;;;;;;5066887;28;20094;-75
2022/05/02 13:37:31;;;;;;;5.53;4.97;;;25.80;39.50;;;;;;5059465;28;20043;-75
2022/05/02 13:40:09;;;;;;;6.28;5.60;;;25.80;41.10;;;;;;5053024;28;20495;-75
2022/05/02 13:42:50;;;;;;;5.50;4.45;;;26.10;40.00;;;;;;5070133;28;20040;-75
2022/05/02 13:45:22;;;;;;;4.97;4.47;;;26.50;38.90;;;;;;5053671;28;20044;-75
2022/05/02 13:48:16;;;;;;;6.13;4.88;;;26.60;35.50;;;;;;5043896;28;20051;-75
2022/05/02 13:50:48;;;;;;;;;;;26.30;37.90;;;;;;5053699;28;20045;-75
2022/05/02 13:53:24;;;;;;;5.88;5.28;;;26.50;41.20;;;;;;5053358;28;19916;-75
2022/05/02 13:56:24;;;;;;;6.40;5.80;;;26.90;39.70;;;;;;5053377;28;20448;-75
2022/05/02 13:59:11;;;;;;;6.15;5.07;;;27.30;38.80;;;;;;5069831;28;20128;-75
2022/05/02 14:01:58;;;;;;;5.93;4.70;;;27.50;39.40;;;;;;5053284;28;20041;-75
2022/05/02 14:07:11;;;;;;;6.20;5.47;;;27.60;37.70;;;;;;5069738;28;20083;-75